Amherst Junction, Wisconsin
Current Conditions -  °F | °C
As of 6:15 AM on Friday 31 Oct 2014 (Local Time) from KSTE Reporting Station
Broken Clouds Broken Clouds  
Wind Chill: 17°   Ceiling: 2700
Heat Index: 28°   Visibility: 10mi
Dew Point: 22°   Wind: 15mph
Humidity: 76%   Direction: 350°N
Pressure: 30.26"   Gusts: 21mph
Location:  44.47°N, 89.31°W
Report Text: KSTE 311115Z AUTO 35013G18KT 10SM BKN027 M02/M06 A3026 RMK AO2 T10201057
Loading
Personal Weather Stations






























Interactive Weather Map
Tropical Storm Tracking
New forecast layout! Learn more

10-Day Weather Forecast

Advertisements
Track Severe Weather on mobile